Nearby METAR Reports

KLNK - Lincoln, Nebraska, USA
Distance from station: WNW 8mi, 13km
Updated: Fri, 26-May-2017 3:54am CDT
Mostly Cloudy
Mostly Cloudy
 Wind from ENE
Wind: ENE 7 mph , 11 km/h
Temperature: 63°F , 17°C
Dew Point: 57°F , 14°C
Humidity: 83%
Barometer: 29.62 inHg , 1003 hPa
Clouds: Mostly Cloudy
Visibility: 10 miles , 16 km
Cloud details: Mostly Cloudy 12000 ft
2017/05/26 08:54 KLNK 260854Z AUTO 06006KT 10SM BKN120 17/14 A2962 RMK AO2 SLP020 T01720144 58009
KAHQ - Wahoo, Nebraska, USA
Distance from station: N 31mi, 49km
Updated: Fri, 26-May-2017 3:55am CDT
Clear
Clear
 Wind from calm
Wind: Calm
Temperature: 63°F , 17°C
Dew Point: 55°F , 13°C
Humidity: 77%
Barometer: 29.64 inHg , 1003.7 hPa
Clouds: Clear
Visibility: 10 miles , 16 km
2017/05/26 08:55 KAHQ 260855Z AUTO 00000KT 10SM CLR 17/13 A2964 RMK AO2 T01670133
 
KBIE - Beatrice Municip, Nebraska, USA
Distance from station: S 36mi, 57km
Updated: Fri, 26-May-2017 3:55am CDT
Partly Cloudy
Partly Cloudy
 Wind from calm
Wind: Calm
Temperature: 63°F , 17°C
Dew Point: 61°F , 16°C
Humidity: 94%
Barometer: 29.63 inHg , 1003.4 hPa
Clouds: Partly Cloudy
Visibility: 10 miles , 16 km
Cloud details: Partly Cloudy 11000 ft
2017/05/26 08:55 KBIE 260855Z AUTO 00000KT 10SM SCT110 17/16 A2963 RMK AO2 60001 T01650157
KMLE - Omaha/Millard, Nebraska, USA
Distance from station: NE 39mi, 63km
Updated: Fri, 26-May-2017 3:55am CDT
Clear
Clear
 Wind from calm
Wind: Calm
Temperature: 64°F , 18°C
Dew Point: 59°F , 15°C
Humidity: 83%
Barometer: 29.64 inHg , 1003.7 hPa
Clouds: Clear
Visibility: 10 miles , 16 km
2017/05/26 08:55 KMLE 260855Z AUTO 00000KT 10SM CLR 18/15 A2964 RMK AO2 T01820150
 
KPMV - Plattsmouth Muni, Nebraska, USA
Distance from station: ENE 39mi, 63km
Updated: Fri, 26-May-2017 3:55am CDT
Clear
Clear
 Wind from E
Wind: E 3 mph , 6 km/h
Temperature: 66°F , 19°C
Dew Point: 57°F , 14°C
Humidity: 73%
Barometer: 29.63 inHg , 1003.4 hPa
Clouds: Clear
Visibility: 10 miles , 16 km
2017/05/26 08:55 KPMV 260855Z AUTO 08003KT 10SM CLR 19/14 A2963 RMK AO2 T01850137
KAFK - Nebraska City, Nebraska, USA
Distance from station: ESE 43mi, 69km
Updated: Fri, 26-May-2017 3:55am CDT
Rain, Partly cloudy
Rain, Partly cloudy
 Wind from calm
Wind: Calm
Temperature: 64°F , 18°C
Dew Point: 54°F , 12°C
Humidity: 68%
Barometer: 29.64 inHg , 1003.7 hPa
Summary: Rain
Clouds: Partly Cloudy
Visibility: 10 miles , 16 km
Cloud details: Partly Cloudy 10000 ft
Partly Cloudy 12000 ft
2017/05/26 08:55 KAFK 260855Z AUTO 00000KT 10SM RA SCT100 SCT120 18/12 A2964 RMK AO2 T01800123
 
KOFF - Offutt Afb/Belle, Nebraska, USA
Distance from station: ENE 44mi, 70km
Updated: Fri, 26-May-2017 3:56am CDT
Clear
Clear
 Wind from ENE
Wind: ENE 5 mph , 7 km/h
Temperature: 63°F , 17°C
Dew Point: 57°F , 14°C
Humidity: 83%
Barometer: 29.63 inHg , 1003.4 hPa
Clouds: Clear
Visibility: 10 miles , 16 km
2017/05/26 08:56 KOFF 260856Z AUTO 07004KT 10SM CLR 17/14 A2963 RMK AO2 SLP031 T01680135 55010 $
KFET - Fremont Muni Arp, Nebraska, USA
Distance from station: N 46mi, 74km
Updated: Fri, 26-May-2017 3:55am CDT
Clear
Clear
 Wind from calm
Wind: Calm
Temperature: 64°F , 18°C
Dew Point: 55°F , 13°C
Humidity: 73%
Barometer: 29.64 inHg , 1003.7 hPa
Clouds: Clear
Visibility: 10 miles , 16 km
2017/05/26 08:55 KFET 260855Z AUTO 00000KT 10SM CLR 18/13 A2964 RMK AO2 T01790131
 
KBTA - Blair Muni, Nebraska, USA
Distance from station: NNE 51mi, 82km
Updated: Fri, 26-May-2017 3:55am CDT
Overcast
Overcast
 Wind from SE
Wind: SE 3 mph , 6 km/h
Temperature: 66°F , 19°C
Dew Point: 57°F , 14°C
Humidity: 73%
Barometer: 29.64 inHg , 1003.7 hPa
Clouds: Overcast
Visibility: 10 miles , 16 km
Cloud details: Overcast 7000 ft
2017/05/26 08:55 KBTA 260855Z AUTO 13003KT 10SM OVC070 19/14 A2964 RMK AO2 T01850135
KJYR - York, Nebraska, USA
Distance from station: W 52mi, 84km
Updated: Fri, 26-May-2017 3:55am CDT
Mostly Cloudy
Mostly Cloudy
 Wind from N
Wind: N 5 mph , 7 km/h
Temperature: 61°F , 16°C
Dew Point: 57°F , 14°C
Humidity: 88%
Barometer: 29.66 inHg , 1004.4 hPa
Clouds: Mostly Cloudy
Visibility: 10 miles , 16 km
Cloud details: Mostly Cloudy 12000 ft
2017/05/26 08:55 KJYR 260855Z AUTO 35004KT 10SM BKN120 16/14 A2966 RMK AO2
 
KOMA - Omaha/Eppley, Nebraska, USA
Distance from station: NE 53mi, 85km
Updated: Fri, 26-May-2017 3:52am CDT
Overcast
Overcast
 Wind from SE
Wind: SE 5 mph , 7 km/h
Temperature: 64°F , 18°C
Dew Point: 55°F , 13°C
Humidity: 73%
Barometer: 29.64 inHg , 1003.7 hPa
Clouds: Overcast
Visibility: 10 miles , 16 km
Cloud details: Partly Cloudy 8000 ft
Overcast 20000 ft
2017/05/26 08:52 KOMA 260852Z 13004KT 10SM SCT080 OVC200 18/13 A2964 RMK AO2 SLP028 T01830128 55008
KOLU - Columbus Muni, Nebraska, USA
Distance from station: NW 58mi, 93km
Updated: Tue, 23-May-2017 8:15am CDT
NOT Current

 
2017/05/23 13:15 KOLU 231315Z AUTO RMK AO2 RVRNO